createdAt,value
2019-03-31T00:04:07.168Z,6.10
2019-03-31T00:09:13.760Z,6.10
2019-03-31T00:14:20.436Z,6.10
2019-03-31T00:19:26.940Z,6.10
2019-03-31T00:24:33.619Z,6.00
2019-03-31T00:29:40.096Z,6.10
2019-03-31T00:34:46.803Z,6.10
2019-03-31T00:39:53.446Z,6.00
2019-03-31T00:45:00.348Z,6.10
2019-03-31T00:50:07.394Z,6.10
2019-03-31T00:55:13.966Z,6.10
2019-03-31T01:00:40.414Z,6.00
2019-03-31T01:05:48.538Z,6.00
2019-03-31T01:10:55.127Z,5.90
2019-03-31T01:16:02.005Z,5.70
2019-03-31T01:21:08.498Z,5.80
2019-03-31T01:26:18.052Z,5.80
2019-03-31T01:31:24.480Z,5.70
2019-03-31T01:36:31.031Z,5.70
2019-03-31T01:41:37.601Z,5.70
2019-03-31T01:46:44.285Z,5.70
2019-03-31T01:51:50.877Z,5.70
2019-03-31T01:56:57.377Z,5.70
2019-03-31T02:02:04.841Z,5.70
2019-03-31T02:07:11.776Z,5.70
2019-03-31T02:12:18.275Z,5.70
2019-03-31T02:17:24.856Z,5.70
2019-03-31T02:22:31.334Z,5.80
2019-03-31T02:27:38.016Z,5.80
2019-03-31T02:32:44.511Z,5.80
2019-03-31T02:37:51.137Z,5.80
2019-03-31T02:42:57.680Z,5.80
2019-03-31T02:48:04.297Z,5.70
2019-03-31T02:53:10.966Z,5.70
2019-03-31T02:58:18.554Z,5.70
2019-03-31T03:03:25.351Z,5.70
2019-03-31T03:08:34.997Z,5.60
2019-03-31T03:13:43.748Z,5.70
2019-03-31T03:18:50.402Z,5.70
2019-03-31T03:23:57.076Z,5.70
2019-03-31T03:29:03.720Z,5.60
2019-03-31T03:34:10.252Z,5.70
2019-03-31T03:39:16.921Z,5.80
2019-03-31T03:44:23.411Z,5.90
2019-03-31T03:49:30.057Z,5.90
2019-03-31T03:54:36.695Z,6.00
2019-03-31T03:59:43.374Z,5.90
2019-03-31T04:04:49.835Z,6.00
2019-03-31T04:09:56.411Z,6.10
2019-03-31T04:15:02.957Z,6.20
2019-03-31T04:20:09.585Z,6.20
2019-03-31T04:25:16.134Z,6.20
2019-03-31T04:30:22.698Z,6.20
2019-03-31T04:35:29.306Z,6.20
2019-03-31T04:40:36.857Z,6.20
2019-03-31T04:45:53.261Z,6.10
2019-03-31T04:50:59.798Z,6.10
2019-03-31T04:56:06.464Z,6.00
2019-03-31T05:01:12.956Z,5.90
2019-03-31T05:06:19.629Z,5.90
2019-03-31T05:11:41.437Z,5.70
2019-03-31T05:16:48.095Z,5.70
2019-03-31T05:21:54.618Z,5.70
2019-03-31T05:27:01.288Z,5.80
2019-03-31T05:32:07.973Z,5.70
2019-03-31T05:37:14.473Z,5.70
2019-03-31T05:42:21.244Z,5.80
2019-03-31T05:47:27.848Z,5.90
2019-03-31T05:52:34.440Z,6.00
2019-03-31T05:57:40.930Z,6.00
2019-03-31T06:02:47.594Z,6.10
2019-03-31T06:07:54.426Z,6.20
2019-03-31T06:13:00.865Z,6.40
2019-03-31T06:18:07.499Z,6.50
2019-03-31T06:23:14.147Z,6.60
2019-03-31T06:28:20.724Z,6.80
2019-03-31T06:33:27.377Z,7.00
2019-03-31T06:38:33.892Z,7.30
2019-03-31T06:43:40.389Z,7.60
2019-03-31T06:48:47.064Z,7.90
2019-03-31T06:53:53.676Z,8.30
2019-03-31T06:59:00.359Z,8.60
2019-03-31T07:04:06.892Z,9.00
2019-03-31T07:09:13.552Z,9.40
2019-03-31T07:14:19.941Z,9.80
2019-03-31T07:19:26.755Z,10.30
2019-03-31T07:24:33.419Z,10.50
2019-03-31T07:29:39.977Z,10.70
2019-03-31T07:34:46.601Z,10.80
2019-03-31T07:39:53.190Z,11.20
2019-03-31T07:44:59.826Z,11.20
2019-03-31T07:50:07.525Z,11.40
2019-03-31T07:55:14.572Z,11.60
2019-03-31T08:00:21.953Z,11.70
2019-03-31T08:05:33.397Z,12.00
2019-03-31T08:10:36.876Z,12.10
2019-03-31T08:15:43.483Z,12.20
2019-03-31T08:20:50.091Z,12.40
2019-03-31T08:25:56.637Z,12.70
2019-03-31T08:31:03.218Z,13.00
2019-03-31T08:36:09.696Z,13.20
2019-03-31T08:41:16.266Z,13.20
2019-03-31T08:46:22.803Z,13.40
2019-03-31T08:51:29.347Z,13.70
2019-03-31T08:56:35.837Z,14.00
2019-03-31T09:01:43.130Z,14.20
2019-03-31T09:06:49.741Z,14.40
2019-03-31T09:11:56.341Z,14.90
2019-03-31T09:17:02.931Z,14.80
2019-03-31T09:22:09.495Z,15.10
2019-03-31T09:27:15.992Z,15.80
2019-03-31T09:32:22.441Z,16.40
2019-03-31T09:37:28.942Z,16.20
2019-03-31T09:42:35.646Z,17.20
2019-03-31T09:47:42.377Z,16.50
2019-03-31T09:52:49.837Z,15.50
2019-03-31T09:57:56.464Z,14.60
2019-03-31T10:03:03.292Z,15.00
2019-03-31T10:08:10.044Z,16.50
2019-03-31T10:13:16.658Z,16.30
2019-03-31T10:18:23.421Z,15.40
2019-03-31T10:23:30.121Z,15.00
2019-03-31T10:28:36.921Z,14.70
2019-03-31T10:33:43.509Z,15.00
2019-03-31T10:38:50.309Z,14.80
2019-03-31T10:43:57.012Z,14.80
2019-03-31T10:49:03.455Z,14.80
2019-03-31T10:54:10.088Z,14.60
2019-03-31T10:59:16.727Z,14.20
2019-03-31T11:04:23.453Z,14.50
2019-03-31T11:09:30.132Z,14.10
2019-03-31T11:14:36.778Z,14.50
2019-03-31T11:19:43.432Z,15.50
2019-03-31T11:24:50.077Z,17.70
2019-03-31T11:29:56.990Z,18.50
2019-03-31T11:35:03.993Z,18.60
2019-03-31T11:40:10.750Z,17.80
2019-03-31T11:45:17.767Z,16.80
2019-03-31T11:50:24.351Z,16.70
2019-03-31T11:55:31.036Z,17.10
2019-03-31T12:00:41.249Z,17.70
2019-03-31T12:05:47.791Z,18.30
2019-03-31T12:10:54.391Z,18.20
2019-03-31T12:16:01.260Z,18.00
2019-03-31T12:21:07.791Z,17.00
2019-03-31T12:26:14.482Z,16.90
2019-03-31T12:31:21.029Z,16.30
2019-03-31T12:36:27.708Z,15.50
2019-03-31T12:41:34.305Z,15.00
2019-03-31T12:46:40.905Z,14.90
2019-03-31T12:51:47.565Z,14.80
2019-03-31T12:56:54.054Z,14.70
2019-03-31T13:02:00.711Z,14.80
2019-03-31T13:07:07.308Z,15.30
2019-03-31T13:12:13.965Z,15.20
2019-03-31T13:17:20.681Z,15.10
2019-03-31T13:22:27.400Z,15.40
2019-03-31T13:27:33.942Z,15.30
2019-03-31T13:32:40.617Z,15.20
2019-03-31T13:37:47.309Z,15.20
2019-03-31T13:42:54.137Z,15.60
2019-03-31T13:48:00.693Z,15.50
2019-03-31T13:53:07.329Z,15.00
2019-03-31T13:58:14.951Z,14.60
2019-03-31T14:03:21.995Z,14.20
2019-03-31T14:08:29.657Z,13.60
2019-03-31T14:13:36.547Z,13.60
2019-03-31T14:18:43.323Z,13.40
2019-03-31T14:23:49.900Z,13.40
2019-03-31T14:28:56.816Z,13.10
2019-03-31T14:34:03.459Z,13.00
2019-03-31T14:39:10.777Z,12.90
2019-03-31T14:44:17.871Z,12.70
2019-03-31T14:49:25.943Z,12.60
2019-03-31T14:54:32.687Z,12.50
2019-03-31T14:59:39.306Z,12.50
2019-03-31T15:04:45.951Z,12.50
2019-03-31T15:09:52.468Z,12.40
2019-03-31T15:15:00.385Z,12.40
2019-03-31T15:20:08.356Z,12.30
2019-03-31T15:25:14.979Z,12.30
2019-03-31T15:30:21.651Z,12.10
2019-03-31T15:35:28.241Z,12.00
2019-03-31T15:40:34.815Z,11.80
2019-03-31T15:45:41.445Z,11.90
2019-03-31T15:50:47.894Z,11.70
2019-03-31T15:55:54.564Z,11.80
2019-03-31T16:01:02.207Z,11.70
2019-03-31T16:06:08.769Z,11.70
2019-03-31T16:11:14.900Z,11.60
2019-03-31T16:16:21.045Z,11.50
2019-03-31T16:21:27.248Z,11.50
2019-03-31T16:26:34.499Z,11.40
2019-03-31T16:31:40.577Z,11.40
2019-03-31T16:36:46.813Z,11.30
2019-03-31T16:41:53.885Z,11.20
2019-03-31T16:47:00.041Z,11.20
2019-03-31T16:52:07.288Z,11.10
2019-03-31T16:57:13.321Z,11.10
2019-03-31T17:02:19.491Z,11.00
2019-03-31T17:07:25.539Z,10.90
2019-03-31T17:12:31.589Z,10.90
2019-03-31T17:17:37.536Z,10.80
2019-03-31T17:22:43.750Z,10.70
2019-03-31T17:27:49.990Z,10.60
2019-03-31T17:32:56.061Z,10.60
2019-03-31T17:38:02.102Z,10.60
2019-03-31T17:43:08.214Z,10.50
2019-03-31T17:48:14.407Z,10.50
2019-03-31T17:53:20.570Z,10.40
2019-03-31T17:58:26.649Z,10.40
2019-03-31T18:03:32.750Z,10.30
2019-03-31T18:08:42.186Z,10.20
2019-03-31T18:13:47.666Z,10.20
2019-03-31T18:18:53.596Z,10.30
2019-03-31T18:23:59.731Z,10.20
2019-03-31T18:29:06.862Z,10.10
2019-03-31T18:34:12.933Z,10.10
2019-03-31T18:39:19.029Z,10.00
2019-03-31T18:44:25.291Z,10.00
2019-03-31T18:49:31.274Z,9.90
2019-03-31T18:54:59.473Z,9.70
2019-03-31T19:00:32.623Z,9.40
2019-03-31T19:05:56.891Z,9.00
2019-03-31T19:11:21.932Z,8.70
2019-03-31T19:16:59.725Z,8.40
2019-03-31T19:22:12.836Z,8.20
2019-03-31T19:27:37.912Z,8.00
2019-03-31T19:33:01.878Z,7.80
2019-03-31T19:38:14.123Z,7.60
2019-03-31T19:43:33.101Z,7.50
2019-03-31T19:48:58.108Z,7.40
2019-03-31T19:54:23.013Z,7.20
2019-03-31T19:59:47.659Z,7.00
2019-03-31T20:05:12.666Z,6.70
2019-03-31T20:10:26.086Z,6.50
2019-03-31T20:15:46.612Z,6.50
2019-03-31T20:21:04.405Z,6.40
2019-03-31T20:26:23.949Z,6.10
2019-03-31T20:31:51.826Z,6.00
2019-03-31T20:37:15.003Z,5.90
2019-03-31T20:42:37.283Z,5.80
2019-03-31T20:47:43.392Z,5.80
2019-03-31T20:52:49.476Z,5.60
2019-03-31T20:57:56.692Z,5.60
2019-03-31T21:03:03.941Z,5.40
2019-03-31T21:08:10.216Z,5.30
2019-03-31T21:13:16.366Z,5.30
2019-03-31T21:18:22.533Z,5.20
2019-03-31T21:23:28.697Z,5.10
2019-03-31T21:28:34.857Z,5.00
2019-03-31T21:33:40.865Z,5.00
2019-03-31T21:38:46.927Z,4.90
2019-03-31T21:43:53.089Z,4.80
2019-03-31T21:48:59.275Z,4.80
2019-03-31T21:54:05.331Z,4.70
2019-03-31T21:59:11.324Z,4.70
2019-03-31T22:04:17.429Z,4.60
2019-03-31T22:09:23.587Z,4.60
2019-03-31T22:14:29.784Z,4.50
2019-03-31T22:19:35.837Z,4.30
2019-03-31T22:24:41.908Z,4.40
2019-03-31T22:29:47.985Z,4.30
2019-03-31T22:34:54.162Z,4.20
2019-03-31T22:40:00.372Z,4.10
2019-03-31T22:45:06.749Z,4.10
2019-03-31T22:50:12.894Z,4.00
2019-03-31T22:55:19.882Z,4.00
2019-03-31T23:00:27.200Z,3.90
2019-03-31T23:05:33.365Z,3.90
2019-03-31T23:10:39.448Z,3.80
2019-03-31T23:15:45.629Z,3.70
2019-03-31T23:20:51.793Z,3.80
2019-03-31T23:25:57.891Z,3.70
2019-03-31T23:31:03.957Z,3.60
2019-03-31T23:36:21.286Z,3.50
2019-03-31T23:41:27.360Z,3.40
2019-03-31T23:46:35.365Z,3.40
2019-03-31T23:51:41.260Z,3.30
2019-03-31T23:56:47.330Z,3.20
